Time;durP1;ratioP1;P1;durP2;ratioP2;P2;SDS_P1;SDS_P2;PMS_P1;PMS_P2;Temp;Humidity;BMP_temperature;BMP_pressure;BME280_temperature;BME280_humidity;BME280_pressure;Samples;Min_cycle;Max_cycle;Signal;HPM_P1;HPM_P2
2021/08/30 00:00:08;;;;;;;2.47;1.30;;;23.30;39.90;;;;;;5012273;28;20041;-70
2021/08/30 00:02:34;;;;;;;5.43;1.40;;;23.20;39.90;;;;;;5013390;28;20113;-72
2021/08/30 00:05:01;;;;;;;2.97;1.20;;;23.20;40.00;;;;;;4995487;28;20026;-70
2021/08/30 00:07:27;;;;;;;2.53;1.20;;;23.10;40.10;;;;;;5016592;28;20041;-70
2021/08/30 00:09:53;;;;;;;2.17;1.08;;;23.10;39.90;;;;;;5017600;28;20018;-71
2021/08/30 00:12:19;;;;;;;4.47;1.30;;;23.10;40.00;;;;;;5017131;28;20483;-70
2021/08/30 00:14:44;;;;;;;2.03;0.90;;;23.00;39.90;;;;;;5016807;28;20036;-69
2021/08/30 00:17:10;;;;;;;2.58;0.80;;;23.00;40.00;;;;;;5016293;28;20057;-71
2021/08/30 00:19:36;;;;;;;3.45;0.80;;;22.90;39.90;;;;;;5015300;28;20096;-70
2021/08/30 00:22:03;;;;;;;5.15;1.65;;;22.90;39.80;;;;;;5016523;28;20018;-70
2021/08/30 00:24:29;;;;;;;4.25;1.90;;;22.80;40.10;;;;;;5016131;28;20018;-70
2021/08/30 00:26:55;;;;;;;2.10;1.08;;;22.80;40.10;;;;;;5016328;28;20033;-69
2021/08/30 00:29:25;;;;;;;2.95;1.20;;;22.80;40.20;;;;;;5016225;28;20040;-70
2021/08/30 00:31:57;;;;;;;3.50;1.08;;;22.70;40.20;;;;;;5016504;28;20025;-69
2021/08/30 00:34:24;;;;;;;3.03;1.10;;;22.70;41.20;;;;;;4998376;28;20124;-72
2021/08/30 00:36:50;;;;;;;3.20;1.20;;;22.70;40.20;;;;;;4998680;28;20603;-71
2021/08/30 00:39:20;;;;;;;3.85;1.20;;;22.70;40.60;;;;;;5016291;28;20057;-70
2021/08/30 00:41:47;;;;;;;2.38;1.17;;;22.70;40.60;;;;;;5016239;28;20403;-71
2021/08/30 00:44:13;;;;;;;2.50;1.13;;;22.70;40.60;;;;;;5015846;28;20030;-70
2021/08/30 00:46:39;;;;;;;2.72;1.20;;;22.70;40.50;;;;;;5016013;28;20483;-69
2021/08/30 00:49:05;;;;;;;5.15;1.25;;;22.70;40.60;;;;;;5015885;28;20124;-70
2021/08/30 00:51:31;;;;;;;2.58;1.10;;;22.70;40.80;;;;;;5015939;28;20103;-69
2021/08/30 00:53:58;;;;;;;3.17;1.00;;;22.70;40.70;;;;;;5015948;28;20424;-70
2021/08/30 00:56:27;;;;;;;3.78;1.23;;;22.70;40.80;;;;;;5015668;28;20026;-71
2021/08/30 00:58:54;;;;;;;2.67;1.15;;;22.70;40.80;;;;;;5014694;28;20049;-72
2021/08/30 01:01:19;;;;;;;3.85;1.50;;;22.70;41.10;;;;;;5015723;28;20125;-72
2021/08/30 01:03:46;;;;;;;2.65;1.20;;;22.70;41.50;;;;;;5015726;28;20518;-72
2021/08/30 01:06:21;;;;;;;3.25;1.30;;;22.60;41.20;;;;;;4998220;28;20430;-71
2021/08/30 01:09:01;;;;;;;3.88;1.40;;;22.70;40.90;;;;;;5015985;28;20038;-72
2021/08/30 01:11:32;;;;;;;4.70;1.30;;;22.70;40.00;;;;;;5015757;28;20101;-70
2021/08/30 01:14:05;;;;;;;3.25;1.42;;;22.70;41.30;;;;;;5015574;28;20065;-71
2021/08/30 01:16:32;;;;;;;3.92;1.25;;;22.60;41.20;;;;;;5014691;28;20124;-71
2021/08/30 01:18:59;;;;;;;2.67;1.27;;;22.60;41.40;;;;;;5015483;28;20101;-70
2021/08/30 01:21:35;;;;;;;6.95;1.48;;;22.70;41.30;;;;;;5014142;28;20021;-70
2021/08/30 01:24:07;;;;;;;3.80;1.20;;;22.60;41.30;;;;;;5015495;28;20097;-70
2021/08/30 01:26:40;;;;;;;3.33;1.13;;;22.60;41.30;;;;;;5015416;28;20109;-72
2021/08/30 01:29:16;;;;;;;3.42;1.70;;;22.60;41.40;;;;;;5015176;28;20030;-72
2021/08/30 01:31:52;;;;;;;3.90;1.25;;;22.50;41.50;;;;;;5015295;28;20022;-71
2021/08/30 01:34:20;;;;;;;2.67;1.00;;;22.50;40.40;;;;;;5015168;28;20025;-70
2021/08/30 01:36:48;;;;;;;2.47;1.30;;;22.50;41.60;;;;;;5015177;28;20072;-73
2021/08/30 01:39:14;;;;;;;3.08;1.20;;;22.40;41.90;;;;;;5015132;28;20034;-70
2021/08/30 01:41:41;;;;;;;3.03;1.23;;;22.40;41.80;;;;;;5014979;28;20076;-72
2021/08/30 01:44:09;;;;;;;2.83;0.93;;;22.30;42.00;;;;;;5015095;28;20026;-70
2021/08/30 01:46:37;;;;;;;2.85;1.13;;;22.20;42.00;;;;;;5014856;28;20495;-70
2021/08/30 01:49:04;;;;;;;3.10;1.30;;;22.20;42.10;;;;;;5014768;28;20048;-69
2021/08/30 01:51:31;;;;;;;3.67;1.20;;;22.20;42.20;;;;;;4997294;28;20034;-69
2021/08/30 01:53:58;;;;;;;3.58;1.50;;;22.20;42.30;;;;;;4997346;28;20033;-72
2021/08/30 01:56:27;;;;;;;4.30;1.20;;;22.10;42.10;;;;;;5014828;28;20033;-71
2021/08/30 02:01:39;;;;;;;4.00;1.30;;;22.00;42.80;;;;;;5014992;28;20145;-69
2021/08/30 02:04:05;;;;;;;2.30;1.20;;;21.90;43.00;;;;;;5014636;28;20411;-70
2021/08/30 02:06:32;;;;;;;2.38;1.20;;;21.90;43.00;;;;;;5014545;28;20479;-71
2021/08/30 02:08:59;;;;;;;2.67;1.02;;;21.90;43.10;;;;;;4996843;28;20068;-70
2021/08/30 02:11:35;;;;;;;4.13;1.30;;;22.00;43.10;;;;;;5014461;28;20475;-71
2021/08/30 02:14:02;;;;;;;4.00;1.20;;;22.00;42.30;;;;;;5014505;28;20026;-71
2021/08/30 02:16:28;;;;;;;3.40;1.40;;;22.00;43.30;;;;;;5014134;28;20495;-70
2021/08/30 02:19:02;;;;;;;2.22;1.15;;;21.90;43.30;;;;;;5014405;28;20104;-70
2021/08/30 02:21:47;;;;;;;1.58;0.90;;;21.90;42.20;;;;;;5013113;28;20029;-69
2021/08/30 02:24:25;;;;;;;2.88;1.17;;;21.80;41.90;;;;;;5014309;28;20030;-70
2021/08/30 02:27:09;;;;;;;1.50;1.02;;;21.80;42.00;;;;;;5014165;28;20034;-69
2021/08/30 02:29:47;;;;;;;6.07;1.30;;;21.70;42.10;;;;;;5013693;28;20026;-70
2021/08/30 02:32:15;;;;;;;4.43;1.17;;;21.70;43.50;;;;;;5014463;28;20439;-72
2021/08/30 02:34:53;;;;;;;3.00;1.10;;;21.70;43.60;;;;;;5014044;28;20030;-72
2021/08/30 02:37:22;;;;;;;3.17;1.27;;;21.70;44.00;;;;;;5014125;28;20168;-69
2021/08/30 02:39:50;;;;;;;2.63;0.98;;;21.70;44.00;;;;;;5014063;28;20025;-69
2021/08/30 02:42:18;;;;;;;2.25;1.10;;;21.60;43.80;;;;;;5013690;28;20025;-70
2021/08/30 02:44:45;;;;;;;2.55;1.05;;;21.70;44.10;;;;;;5013914;28;20026;-69
2021/08/30 02:47:12;;;;;;;3.20;1.00;;;21.70;44.30;;;;;;5013978;28;20041;-71
2021/08/30 02:49:42;;;;;;;4.45;1.00;;;21.70;44.20;;;;;;5014465;28;20026;-72
2021/08/30 02:52:10;;;;;;;1.92;1.05;;;21.70;44.20;;;;;;5015216;28;20487;-70
2021/08/30 02:54:37;;;;;;;3.53;1.20;;;21.60;44.10;;;;;;4996238;28;20481;-70
2021/08/30 02:57:05;;;;;;;2.15;1.13;;;21.70;44.10;;;;;;5013776;28;20106;-70
2021/08/30 02:59:32;;;;;;;1.90;1.00;;;21.80;44.20;;;;;;5013789;28;20027;-70
2021/08/30 03:02:00;;;;;;;2.80;1.38;;;21.70;44.50;;;;;;5013846;28;20072;-72
2021/08/30 03:04:26;;;;;;;5.22;1.02;;;21.70;44.40;;;;;;5013487;28;20026;-72
2021/08/30 03:06:54;;;;;;;2.60;1.20;;;21.70;44.80;;;;;;5013533;28;20022;-70
2021/08/30 03:09:20;;;;;;;3.33;1.17;;;21.60;44.90;;;;;;5013721;28;20076;-69
2021/08/30 03:11:49;;;;;;;3.85;1.20;;;21.50;45.10;;;;;;5013401;28;20434;-72
2021/08/30 03:14:18;;;;;;;1.85;1.10;;;21.50;45.30;;;;;;5013583;28;20030;-72
2021/08/30 03:16:44;;;;;;;3.08;1.10;;;21.50;45.30;;;;;;5013444;28;20054;-72
2021/08/30 03:19:13;;;;;;;2.85;1.30;;;21.50;45.30;;;;;;5015537;28;20436;-72
2021/08/30 03:21:40;;;;;;;4.20;1.40;;;21.40;45.40;;;;;;5015418;28;20499;-69
2021/08/30 03:24:08;;;;;;;3.50;1.10;;;21.40;45.60;;;;;;5014051;28;20037;-70
2021/08/30 03:26:35;;;;;;;2.78;1.08;;;21.40;45.70;;;;;;5013696;28;20026;-70
2021/08/30 03:29:01;;;;;;;2.85;1.08;;;21.40;44.80;;;;;;5013449;28;20045;-71
2021/08/30 03:31:30;;;;;;;5.30;1.30;;;21.40;44.70;;;;;;5013614;28;20105;-71
2021/08/30 03:33:56;;;;;;;3.08;1.30;;;21.50;44.70;;;;;;5013503;28;20471;-71
2021/08/30 03:36:24;;;;;;;4.82;1.30;;;21.40;44.60;;;;;;5013212;28;20108;-71
2021/08/30 03:38:50;;;;;;;5.32;1.30;;;21.30;44.80;;;;;;5013208;28;20030;-70
2021/08/30 03:41:17;;;;;;;3.00;1.10;;;21.30;45.70;;;;;;5014781;28;20033;-70
2021/08/30 03:43:44;;;;;;;3.90;1.42;;;21.30;45.30;;;;;;5017238;28;20049;-71
2021/08/30 03:46:12;;;;;;;2.92;1.23;;;21.20;45.30;;;;;;5017250;28;20026;-71
2021/08/30 03:48:38;;;;;;;2.72;1.33;;;21.20;45.80;;;;;;5017113;28;20492;-71
2021/08/30 03:51:04;;;;;;;5.07;1.08;;;21.20;45.60;;;;;;5015830;28;20026;-72
2021/08/30 03:53:31;;;;;;;4.25;1.20;;;21.10;46.30;;;;;;5016837;28;20034;-70
2021/08/30 03:55:58;;;;;;;3.08;1.20;;;21.10;45.80;;;;;;5015639;28;20470;-71
2021/08/30 03:58:25;;;;;;;3.72;1.60;;;21.10;46.30;;;;;;4999296;28;20036;-70
2021/08/30 04:00:53;;;;;;;2.55;1.27;;;21.00;46.20;;;;;;5017189;28;20018;-71
2021/08/30 04:03:20;;;;;;;5.75;1.20;;;21.10;45.90;;;;;;5017056;28;20022;-71
2021/08/30 04:05:49;;;;;;;4.93;1.63;;;21.00;47.90;;;;;;5016561;28;20018;-71
2021/08/30 04:08:16;;;;;;;8.52;1.70;;;21.00;47.70;;;;;;5016903;28;20614;-71
2021/08/30 04:10:42;;;;;;;7.07;1.75;;;21.10;47.70;;;;;;5016889;28;20057;-72
2021/08/30 04:13:08;;;;;;;3.03;1.52;;;21.10;48.00;;;;;;5016761;28;20033;-71
2021/08/30 04:15:34;;;;;;;4.50;1.75;;;21.10;47.80;;;;;;5016319;28;20048;-71
2021/08/30 04:18:00;;;;;;;2.72;1.30;;;21.00;47.80;;;;;;5016486;28;20021;-72
2021/08/30 04:20:26;;;;;;;2.42;1.25;;;21.10;47.80;;;;;;5015350;28;20402;-71
2021/08/30 04:22:52;;;;;;;2.85;1.25;;;21.00;47.90;;;;;;4998759;28;20388;-70
2021/08/30 04:25:18;;;;;;;3.40;1.15;;;21.00;47.70;;;;;;4998675;28;20029;-70
2021/08/30 04:27:43;;;;;;;5.05;1.38;;;21.00;47.90;;;;;;5016456;28;20038;-72
2021/08/30 04:30:10;;;;;;;5.53;1.75;;;21.00;47.90;;;;;;5016344;28;20026;-72
2021/08/30 04:32:37;;;;;;;3.30;1.27;;;20.90;47.90;;;;;;5016272;28;20026;-71
2021/08/30 04:35:05;;;;;;;5.18;1.60;;;20.80;48.10;;;;;;5016245;28;20056;-71
2021/08/30 04:37:31;;;;;;;5.80;1.60;;;20.80;47.40;;;;;;5016292;28;20450;-72
2021/08/30 04:39:57;;;;;;;3.45;1.30;;;20.80;48.30;;;;;;5016404;28;20057;-70
2021/08/30 04:42:23;;;;;;;2.55;1.05;;;20.90;48.30;;;;;;5014771;28;20026;-71
2021/08/30 04:44:50;;;;;;;3.75;1.40;;;20.80;48.00;;;;;;5015991;28;20453;-70
2021/08/30 04:47:16;;;;;;;2.92;1.15;;;20.80;47.90;;;;;;5015921;28;20108;-71
2021/08/30 04:49:42;;;;;;;4.53;1.10;;;20.70;47.50;;;;;;5015940;28;20076;-72
2021/08/30 04:52:08;;;;;;;2.53;1.33;;;20.70;47.40;;;;;;4997347;28;20117;-72
2021/08/30 04:54:33;;;;;;;5.18;1.30;;;20.80;47.30;;;;;;5015884;28;20033;-72
2021/08/30 04:56:59;;;;;;;3.08;1.15;;;20.90;46.80;;;;;;5016262;28;20060;-70
2021/08/30 04:59:25;;;;;;;3.40;0.95;;;20.90;46.60;;;;;;5016673;28;20149;-72
2021/08/30 05:01:50;;;;;;;6.18;1.30;;;20.80;46.30;;;;;;5016191;28;20030;-71
2021/08/30 05:04:16;;;;;;;5.63;1.48;;;20.80;47.10;;;;;;5015387;28;20100;-69
2021/08/30 05:06:42;;;;;;;2.30;1.10;;;20.90;46.70;;;;;;5015845;28;20095;-73
2021/08/30 05:09:07;;;;;;;2.80;1.10;;;20.90;46.50;;;;;;5015554;28;20052;-70
2021/08/30 05:11:36;;;;;;;6.32;1.55;;;20.90;46.30;;;;;;5015817;28;20022;-71
2021/08/30 05:14:02;;;;;;;2.83;1.38;;;20.90;46.30;;;;;;5015622;28;20076;-71
2021/08/30 05:16:28;;;;;;;4.82;1.30;;;20.80;46.30;;;;;;5015114;28;20039;-73
2021/08/30 05:18:54;;;;;;;6.55;1.98;;;20.80;46.20;;;;;;5015099;28;20057;-71
2021/08/30 05:21:20;;;;;;;3.78;1.73;;;20.90;46.30;;;;;;5032814;28;20478;-71
2021/08/30 05:23:45;;;;;;;2.15;1.20;;;20.80;45.70;;;;;;5023279;28;20034;-71
2021/08/30 05:26:11;;;;;;;4.63;1.33;;;20.90;44.70;;;;;;5015164;28;20022;-71
2021/08/30 05:28:37;;;;;;;9.07;1.70;;;20.90;44.60;;;;;;5015235;28;20053;-70
2021/08/30 05:31:03;;;;;;;4.03;1.30;;;20.90;44.60;;;;;;5015109;28;20165;-71
2021/08/30 05:33:29;;;;;;;4.38;1.80;;;20.90;44.50;;;;;;5015170;28;20491;-71
2021/08/30 05:35:55;;;;;;;7.70;1.40;;;20.90;44.60;;;;;;5015825;28;20029;-71
2021/08/30 05:38:21;;;;;;;7.65;2.10;;;20.90;44.90;;;;;;5015899;28;20065;-71
2021/08/30 05:40:46;;;;;;;3.17;1.52;;;20.90;44.80;;;;;;5021194;28;20470;-71
2021/08/30 05:43:12;;;;;;;5.70;1.67;;;20.90;44.80;;;;;;5034587;28;20021;-70
2021/08/30 05:45:38;;;;;;;4.82;1.55;;;21.00;44.60;;;;;;5016606;28;20030;-70
2021/08/30 05:48:05;;;;;;;3.85;1.88;;;21.10;44.60;;;;;;5014672;28;20037;-70
2021/08/30 05:50:30;;;;;;;5.00;1.48;;;21.30;46.30;;;;;;5014728;28;20018;-71
2021/08/30 05:52:56;;;;;;;5.18;1.63;;;21.50;45.90;;;;;;5013232;28;20451;-72
2021/08/30 05:55:22;;;;;;;3.80;1.50;;;21.80;46.00;;;;;;5014558;28;20026;-70
2021/08/30 05:57:48;;;;;;;5.43;1.60;;;22.10;45.40;;;;;;5014429;28;20396;-70
2021/08/30 06:00:15;;;;;;;2.53;1.30;;;22.30;45.30;;;;;;5014497;28;20529;-70
2021/08/30 06:02:40;;;;;;;6.63;1.52;;;22.70;44.10;;;;;;5017175;28;20021;-71
2021/08/30 06:05:07;;;;;;;3.95;1.73;;;22.90;44.40;;;;;;5022374;28;20087;-70
2021/08/30 06:07:33;;;;;;;6.22;1.60;;;23.30;43.50;;;;;;5014271;28;20474;-71
2021/08/30 06:09:59;;;;;;;3.40;1.50;;;23.50;43.60;;;;;;5014179;28;20034;-71
2021/08/30 06:12:24;;;;;;;5.07;1.55;;;23.60;43.40;;;;;;5014212;28;20096;-71
2021/08/30 06:14:50;;;;;;;8.95;1.63;;;23.90;43.20;;;;;;5014209;28;20029;-71
2021/08/30 06:17:16;;;;;;;3.17;1.63;;;24.00;42.60;;;;;;5016601;28;20499;-70
2021/08/30 06:19:42;;;;;;;6.05;1.85;;;24.30;42.50;;;;;;5019286;28;20113;-72
2021/08/30 06:22:09;;;;;;;5.05;1.70;;;24.50;42.10;;;;;;5028050;28;20025;-72
2021/08/30 06:24:40;;;;;;;6.68;1.95;;;24.60;42.40;;;;;;5019679;28;20168;-72
2021/08/30 06:27:07;;;;;;;7.53;1.85;;;24.70;42.00;;;;;;5014010;28;20038;-70
2021/08/30 06:29:33;;;;;;;6.07;2.33;;;24.80;42.10;;;;;;5016043;28;20042;-72
2021/08/30 06:31:59;;;;;;;6.63;2.22;;;24.90;42.70;;;;;;5033474;28;20479;-71
2021/08/30 06:34:26;;;;;;;5.20;2.00;;;25.00;41.80;;;;;;5033693;28;20362;-73
2021/08/30 06:36:52;;;;;;;5.72;2.30;;;25.10;41.60;;;;;;5033571;28;20427;-71
2021/08/30 06:39:18;;;;;;;7.25;2.90;;;25.30;41.70;;;;;;5026945;28;20025;-72
2021/08/30 06:41:44;;;;;;;5.22;2.33;;;25.40;41.40;;;;;;5016251;28;20022;-70
2021/08/30 06:44:10;;;;;;;8.27;2.42;;;25.70;41.20;;;;;;5012817;28;20037;-71
2021/08/30 06:46:36;;;;;;;5.78;2.17;;;25.70;41.40;;;;;;5013520;28;20022;-72
2021/08/30 06:49:01;;;;;;;7.30;2.25;;;25.90;41.30;;;;;;5013755;28;20030;-71
2021/08/30 06:51:27;;;;;;;13.98;3.75;;;26.10;42.00;;;;;;5012598;28;20025;-73
2021/08/30 06:53:53;;;;;;;9.95;2.97;;;26.00;41.30;;;;;;5012345;28;20037;-70
2021/08/30 06:56:19;;;;;;;11.32;3.25;;;26.00;42.00;;;;;;5013368;28;20022;-71
2021/08/30 06:58:44;;;;;;;11.48;2.80;;;26.20;41.90;;;;;;5012386;28;20367;-73
2021/08/30 07:01:10;;;;;;;6.13;2.35;;;26.40;41.80;;;;;;4995882;28;20033;-72
2021/08/30 07:03:36;;;;;;;7.32;2.30;;;26.40;41.60;;;;;;5013835;28;20053;-72
2021/08/30 07:06:02;;;;;;;6.35;2.00;;;26.40;41.80;;;;;;5013433;28;20037;-72
2021/08/30 07:08:28;;;;;;;6.45;2.00;;;26.40;41.40;;;;;;5013254;28;20068;-74
2021/08/30 07:10:54;;;;;;;6.00;1.90;;;26.40;41.20;;;;;;5013116;28;20089;-73
2021/08/30 07:13:19;;;;;;;8.45;2.45;;;26.50;41.60;;;;;;5013206;28;20053;-70
2021/08/30 07:15:47;;;;;;;11.25;2.60;;;26.50;41.90;;;;;;5012775;28;20129;-73
2021/08/30 07:18:16;;;;;;;8.68;1.98;;;26.60;41.80;;;;;;5013188;28;20197;-73
2021/08/30 07:20:42;;;;;;;9.43;2.55;;;26.50;42.10;;;;;;5013223;28;20076;-74
2021/08/30 07:23:09;;;;;;;7.13;2.45;;;26.80;42.00;;;;;;5013196;28;20053;-73
2021/08/30 07:25:35;;;;;;;6.35;2.28;;;26.70;42.40;;;;;;5013314;28;20019;-73
2021/08/30 07:28:01;;;;;;;8.18;2.28;;;26.80;41.70;;;;;;5013389;28;20040;-74
2021/08/30 07:30:26;;;;;;;6.13;2.47;;;26.70;41.60;;;;;;5013398;28;20093;-72
2021/08/30 07:32:52;;;;;;;7.22;1.95;;;26.80;41.90;;;;;;5013068;28;20498;-73
2021/08/30 07:35:20;;;;;;;4.97;2.28;;;26.80;42.30;;;;;;5013129;28;20030;-73
2021/08/30 07:37:46;;;;;;;10.45;2.15;;;26.80;42.10;;;;;;5013197;28;20022;-73
2021/08/30 07:40:13;;;;;;;7.78;1.83;;;26.80;41.90;;;;;;5012955;28;20068;-75
2021/08/30 07:42:39;;;;;;;8.70;1.98;;;27.00;41.60;;;;;;4995477;28;20117;-74
2021/08/30 07:45:05;;;;;;;7.18;2.22;;;27.00;42.00;;;;;;5013070;28;20368;-74
2021/08/30 07:47:31;;;;;;;6.38;2.00;;;26.90;41.20;;;;;;5013289;28;20487;-75
2021/08/30 07:49:57;;;;;;;6.78;1.85;;;26.90;41.70;;;;;;5013237;28;20167;-74
2021/08/30 07:52:23;;;;;;;12.73;2.50;;;26.90;42.10;;;;;;5013353;28;20041;-73
2021/08/30 07:54:49;;;;;;;10.60;2.60;;;26.90;42.10;;;;;;5013267;28;20025;-74
2021/08/30 07:57:15;;;;;;;8.52;2.70;;;26.90;42.50;;;;;;5013321;28;20375;-74
2021/08/30 07:59:41;;;;;;;7.20;2.05;;;26.80;42.20;;;;;;5013036;28;20089;-74
2021/08/30 08:02:07;;;;;;;5.75;1.77;;;26.80;42.20;;;;;;5013081;28;20026;-75
2021/08/30 08:04:32;;;;;;;6.40;2.05;;;26.70;42.20;;;;;;5012746;28;20092;-75
2021/08/30 08:06:58;;;;;;;10.15;2.60;;;26.60;42.10;;;;;;5012683;28;20475;-75
2021/08/30 08:09:24;;;;;;;6.20;2.00;;;26.50;42.40;;;;;;5012599;28;20127;-75
2021/08/30 08:11:49;;;;;;;7.78;2.35;;;26.50;42.60;;;;;;5011561;28;20033;-74
2021/08/30 08:14:15;;;;;;;8.40;2.65;;;26.50;42.60;;;;;;5012699;28;20062;-74
2021/08/30 08:16:42;;;;;;;9.73;2.22;;;26.50;42.80;;;;;;4995211;28;20068;-75
2021/08/30 08:19:07;;;;;;;6.40;1.90;;;26.50;43.00;;;;;;5013277;28;20022;-74
2021/08/30 08:21:34;;;;;;;8.38;1.98;;;26.30;43.00;;;;;;5012909;28;20475;-72
2021/08/30 08:24:01;;;;;;;6.97;1.90;;;26.20;43.40;;;;;;5012526;28;20045;-74
2021/08/30 08:26:27;;;;;;;5.57;2.20;;;26.20;43.40;;;;;;5013008;28;20018;-73
2021/08/30 08:28:54;;;;;;;6.80;2.13;;;26.10;43.30;;;;;;5015915;28;20562;-74
2021/08/30 08:31:21;;;;;;;5.65;1.90;;;26.10;43.50;;;;;;5016164;28;20037;-74
2021/08/30 08:33:49;;;;;;;4.97;1.83;;;26.10;43.70;;;;;;5016141;28;20018;-74
2021/08/30 08:36:16;;;;;;;6.38;2.28;;;26.10;44.00;;;;;;5015843;28;20026;-74
2021/08/30 08:38:42;;;;;;;8.25;2.58;;;26.00;44.10;;;;;;5015604;28;20030;-73
2021/08/30 08:41:08;;;;;;;11.75;2.40;;;26.00;44.30;;;;;;5015864;28;20092;-74
2021/08/30 08:43:35;;;;;;;8.52;2.28;;;26.00;44.10;;;;;;5016223;28;20022;-75
2021/08/30 08:46:01;;;;;;;17.80;2.70;;;26.10;44.30;;;;;;5016139;28;20034;-71
2021/08/30 08:48:28;;;;;;;11.07;2.28;;;26.10;44.60;;;;;;5015833;28;20030;-74
2021/08/30 08:50:53;;;;;;;7.85;2.20;;;26.10;44.20;;;;;;4997882;28;20026;-74
2021/08/30 08:53:19;;;;;;;12.15;2.50;;;26.10;44.00;;;;;;5016028;28;20724;-73
2021/08/30 08:55:45;;;;;;;8.45;2.42;;;26.10;44.30;;;;;;5015446;28;20037;-74
2021/08/30 08:58:14;;;;;;;9.70;2.40;;;26.10;44.20;;;;;;5015503;28;20483;-74
2021/08/30 09:00:41;;;;;;;5.60;2.40;;;26.10;44.10;;;;;;5015865;28;20052;-74
2021/08/30 09:03:19;;;;;;;7.72;2.45;;;26.10;44.00;;;;;;4997939;28;20105;-72
2021/08/30 09:05:44;;;;;;;8.05;2.85;;;26.10;44.10;;;;;;5015070;28;20018;-73
2021/08/30 09:08:28;;;;;;;7.88;2.10;;;26.10;44.20;;;;;;5015695;28;20041;-73
2021/08/30 09:10:54;;;;;;;8.38;2.30;;;26.10;43.20;;;;;;5015314;28;20022;-73
2021/08/30 09:13:31;;;;;;;5.20;1.92;;;26.10;43.90;;;;;;5015357;28;20115;-74
2021/08/30 09:16:00;;;;;;;6.65;1.65;;;26.20;42.10;;;;;;5014827;28;20472;-73
2021/08/30 09:18:29;;;;;;;4.95;1.75;;;26.20;43.40;;;;;;5015408;28;20018;-73
2021/08/30 09:20:55;;;;;;;4.53;1.85;;;26.20;43.80;;;;;;5015175;28;20030;-72
2021/08/30 09:23:21;;;;;;;5.70;1.88;;;26.30;43.60;;;;;;5015188;28;20022;-73
2021/08/30 09:25:46;;;;;;;9.55;2.20;;;26.30;42.90;;;;;;5014811;28;20024;-73
2021/08/30 09:28:12;;;;;;;4.15;1.67;;;26.30;42.80;;;;;;5015061;28;20064;-73
2021/08/30 09:30:39;;;;;;;9.48;2.15;;;26.40;42.40;;;;;;5014946;28;20503;-74
2021/08/30 09:33:05;;;;;;;2.53;1.30;;;26.40;40.60;;;;;;5014432;28;20471;-73
2021/08/30 09:35:31;;;;;;;3.80;1.60;;;26.50;42.10;;;;;;5013306;28;20028;-72
2021/08/30 09:37:58;;;;;;;5.00;1.50;;;26.50;41.80;;;;;;5014588;28;20017;-74
2021/08/30 09:40:27;;;;;;;5.72;1.58;;;26.50;41.60;;;;;;5014753;28;20032;-74
2021/08/30 09:42:57;;;;;;;2.35;1.13;;;26.50;42.00;;;;;;5014737;28;20026;-72
2021/08/30 09:45:27;;;;;;;2.15;0.80;;;26.50;41.50;;;;;;5013243;28;20061;-73
2021/08/30 09:48:00;;;;;;;3.63;1.02;;;26.50;41.00;;;;;;5014642;28;20029;-73
2021/08/30 09:50:28;;;;;;;;;;;26.60;40.20;;;;;;5015097;28;20032;-73
2021/08/30 09:52:54;;;;;;;9.63;1.45;;;26.60;39.80;;;;;;5014744;28;19905;-72
2021/08/30 09:55:20;;;;;;;3.65;1.33;;;26.70;40.40;;;;;;5014718;28;20467;-73
2021/08/30 09:57:50;;;;;;;4.65;1.55;;;26.70;40.40;;;;;;5014435;28;20495;-71
2021/08/30 10:00:17;;;;;;;5.70;1.42;;;26.70;40.50;;;;;;4996926;28;20073;-72
2021/08/30 10:02:50;;;;;;;4.65;1.80;;;26.80;40.60;;;;;;5014276;28;20022;-74
2021/08/30 10:05:16;;;;;;;5.13;1.17;;;26.80;40.90;;;;;;5014352;28;20030;-71
2021/08/30 10:07:45;;;;;;;3.20;1.20;;;26.80;40.10;;;;;;5014581;28;20026;-73
2021/08/30 10:10:12;;;;;;;3.33;1.20;;;26.90;40.10;;;;;;5015026;28;20030;-74
2021/08/30 10:12:39;;;;;;;4.72;1.48;;;26.90;39.80;;;;;;5014336;28;20105;-73
2021/08/30 10:15:06;;;;;;;4.53;1.70;;;27.00;39.90;;;;;;5014052;28;20463;-73
2021/08/30 10:17:32;;;;;;;6.60;1.48;;;27.10;39.80;;;;;;5014155;28;20045;-72
2021/08/30 10:20:00;;;;;;;4.07;1.27;;;27.20;39.60;;;;;;5013994;28;20041;-73
2021/08/30 10:22:26;;;;;;;5.72;1.67;;;27.30;39.10;;;;;;5013965;28;20049;-72
2021/08/30 10:24:53;;;;;;;3.33;1.38;;;27.30;38.50;;;;;;4995998;28;20531;-72
2021/08/30 10:27:34;;;;;;;4.70;1.23;;;27.40;39.00;;;;;;5013816;28;20096;-74
2021/08/30 10:30:09;;;;;;;3.22;1.40;;;27.40;37.70;;;;;;5013942;28;20038;-72
2021/08/30 10:32:43;;;;;;;2.90;1.38;;;27.50;37.60;;;;;;5014046;28;20098;-73
2021/08/30 10:35:17;;;;;;;6.82;1.30;;;27.50;36.20;;;;;;4995967;28;20491;-74
2021/08/30 10:37:59;;;;;;;3.05;1.30;;;27.60;36.90;;;;;;5014018;28;20097;-75
2021/08/30 10:40:29;;;;;;;5.75;1.30;;;27.70;35.70;;;;;;5013965;28;20531;-74
2021/08/30 10:43:01;;;;;;;5.75;3.28;;;27.70;37.40;;;;;;4996165;28;20029;-73
2021/08/30 10:45:39;;;;;;;5.18;2.33;;;27.70;38.30;;;;;;5013656;28;20022;-75
2021/08/30 10:48:10;;;;;;;6.97;2.17;;;27.80;38.50;;;;;;4995930;28;20034;-74
2021/08/30 10:50:49;;;;;;;5.38;2.08;;;27.90;38.40;;;;;;5013312;28;20030;-73
2021/08/30 10:53:22;;;;;;;3.63;1.58;;;28.00;38.10;;;;;;5013956;28;20026;-74
2021/08/30 10:55:53;;;;;;;6.00;1.70;;;28.10;36.50;;;;;;4996362;28;20022;-72
2021/08/30 10:58:26;;;;;;;4.55;1.90;;;28.10;36.10;;;;;;5015277;28;20032;-72
2021/08/30 11:00:54;;;;;;;7.18;2.00;;;28.20;36.30;;;;;;5014045;28;20038;-75
2021/08/30 11:03:32;;;;;;;7.00;2.15;;;28.30;41.10;;;;;;5013901;28;20049;-74
2021/08/30 11:06:05;;;;;;;6.57;1.88;;;28.20;42.90;;;;;;5013586;28;20374;-73
2021/08/30 11:08:31;;;;;;;9.43;2.20;;;28.20;41.00;;;;;;5013670;28;20042;-74
2021/08/30 11:11:21;;;;;;;9.48;2.00;;;28.00;43.40;;;;;;5012209;28;20068;-76
2021/08/30 11:14:08;;;;;;;9.52;2.60;;;27.90;41.60;;;;;;5013341;28;20038;-74
2021/08/30 11:16:37;;;;;;;6.05;2.13;;;27.90;44.00;;;;;;5013497;28;20049;-74
2021/08/30 11:19:11;;;;;;;5.97;2.40;;;27.80;42.00;;;;;;5013394;28;20041;-75
2021/08/30 11:21:50;;;;;;;8.85;2.17;;;27.80;42.10;;;;;;5013327;28;20045;-72
2021/08/30 11:24:24;;;;;;;6.50;2.22;;;27.90;44.40;;;;;;5013328;28;20109;-73
2021/08/30 11:26:50;;;;;;;;;;;28.00;43.50;;;;;;5014327;28;20050;-75
2021/08/30 11:29:15;;;;;;;11.27;2.63;;;28.10;44.50;;;;;;5012935;28;19913;-71
2021/08/30 11:31:41;;;;;;;6.93;2.00;;;28.10;43.70;;;;;;5013462;28;20140;-74
2021/08/30 11:34:09;;;;;;;9.85;2.67;;;28.20;43.60;;;;;;5013253;28;20026;-75
2021/08/30 11:36:48;;;;;;;10.70;2.13;;;28.30;44.20;;;;;;5013182;28;20367;-73
2021/08/30 11:39:19;;;;;;;4.25;1.92;;;28.50;43.90;;;;;;5013224;28;20034;-74
2021/08/30 11:41:49;;;;;;;6.93;2.20;;;28.60;43.90;;;;;;5013163;28;20022;-73
2021/08/30 11:44:15;;;;;;;6.68;2.00;;;28.60;43.50;;;;;;5013044;28;20102;-73
2021/08/30 11:46:47;;;;;;;5.13;1.83;;;28.70;43.40;;;;;;5013068;28;20052;-73
2021/08/30 11:49:13;;;;;;;6.82;2.28;;;28.80;41.30;;;;;;5012726;28;20467;-74
2021/08/30 11:51:40;;;;;;;5.60;2.10;;;28.90;43.20;;;;;;5013226;28;20065;-73
2021/08/30 11:54:14;;;;;;;5.53;1.98;;;29.00;43.40;;;;;;5013064;28;20076;-76
2021/08/30 11:56:40;;;;;;;16.13;2.33;;;29.10;43.40;;;;;;5013155;28;20479;-75
2021/08/30 11:59:06;;;;;;;5.25;2.00;;;29.20;42.30;;;;;;5013022;28;20121;-74
2021/08/30 12:01:38;;;;;;;5.47;2.70;;;29.20;42.60;;;;;;5015158;28;20037;-73
2021/08/30 12:04:18;;;;;;;6.63;1.93;;;29.30;42.60;;;;;;5016801;28;20049;-73
2021/08/30 12:06:48;;;;;;;3.63;1.80;;;29.30;40.60;;;;;;5016778;28;20118;-72
2021/08/30 12:09:14;;;;;;;5.80;1.80;;;29.40;43.00;;;;;;5016738;28;20034;-73
2021/08/30 12:11:53;;;;;;;4.45;1.80;;;29.40;42.30;;;;;;4998936;28;20022;-74
2021/08/30 12:14:23;;;;;;;5.95;2.20;;;29.50;40.30;;;;;;5016332;28;20026;-74
2021/08/30 12:16:55;;;;;;;5.40;2.03;;;29.60;42.80;;;;;;5016458;28;20454;-74
2021/08/30 12:19:24;;;;;;;4.82;1.70;;;29.60;42.40;;;;;;5016620;28;20052;-74
2021/08/30 12:21:50;;;;;;;8.07;1.98;;;29.70;42.40;;;;;;5016761;28;20109;-73
2021/08/30 12:24:21;;;;;;;4.55;1.85;;;29.70;42.10;;;;;;5016190;28;20022;-73
2021/08/30 12:26:49;;;;;;;6.78;1.52;;;29.70;42.40;;;;;;5016426;28;20026;-73
2021/08/30 12:29:17;;;;;;;4.43;2.03;;;29.70;41.90;;;;;;5016135;28;20053;-73
2021/08/30 12:31:49;;;;;;;5.10;1.77;;;29.70;41.40;;;;;;5016387;28;20074;-73
2021/08/30 12:34:17;;;;;;;5.85;1.90;;;29.70;41.20;;;;;;5016037;28;20038;-72
2021/08/30 12:36:47;;;;;;;6.10;2.30;;;29.80;41.00;;;;;;5016215;28;20559;-73
2021/08/30 12:39:12;;;;;;;8.27;1.60;;;29.80;39.80;;;;;;5016136;28;20535;-73
2021/08/30 12:41:38;;;;;;;3.22;1.60;;;29.70;39.20;;;;;;5016138;28;20121;-74
2021/08/30 12:44:04;;;;;;;5.72;2.28;;;29.70;38.60;;;;;;5016525;28;20025;-74
2021/08/30 12:46:30;;;;;;;4.03;1.70;;;29.70;38.70;;;;;;5015974;28;20029;-75
2021/08/30 12:48:59;;;;;;;6.57;1.70;;;29.70;39.50;;;;;;5015942;28;20034;-72
2021/08/30 12:51:24;;;;;;;5.18;1.40;;;29.70;39.00;;;;;;5015992;28;20107;-73
2021/08/30 12:53:50;;;;;;;2.53;1.38;;;29.80;38.40;;;;;;5016034;28;20531;-73